sensor_id;sensor_type;location;lat;lon;timestamp;P1;durP1;ratioP1;P2;durP2;ratioP2
7316;SDS011;3699;51.462;6.696;2024-01-15T00:00:12;53.60;;;21.97;;
7316;SDS011;3699;51.462;6.696;2024-01-15T00:02:39;54.23;;;24.40;;
7316;SDS011;3699;51.462;6.696;2024-01-15T00:05:06;53.70;;;22.27;;
7316;SDS011;3699;51.462;6.696;2024-01-15T00:07:33;53.07;;;22.57;;
7316;SDS011;3699;51.462;6.696;2024-01-15T00:09:59;47.33;;;22.53;;
7316;SDS011;3699;51.462;6.696;2024-01-15T00:12:26;44.73;;;21.53;;
7316;SDS011;3699;51.462;6.696;2024-01-15T00:14:53;48.93;;;22.27;;
7316;SDS011;3699;51.462;6.696;2024-01-15T00:17:21;47.43;;;21.23;;
7316;SDS011;3699;51.462;6.696;2024-01-15T00:19:48;38.93;;;19.90;;
7316;SDS011;3699;51.462;6.696;2024-01-15T00:22:15;51.13;;;23.43;;
7316;SDS011;3699;51.462;6.696;2024-01-15T00:24:41;43.47;;;20.60;;
7316;SDS011;3699;51.462;6.696;2024-01-15T00:27:08;41.73;;;19.30;;
7316;SDS011;3699;51.462;6.696;2024-01-15T00:29:35;45.97;;;20.27;;
7316;SDS011;3699;51.462;6.696;2024-01-15T00:32:01;42.20;;;19.97;;
7316;SDS011;3699;51.462;6.696;2024-01-15T00:34:29;38.50;;;19.50;;
7316;SDS011;3699;51.462;6.696;2024-01-15T00:36:56;41.30;;;18.90;;
7316;SDS011;3699;51.462;6.696;2024-01-15T00:39:23;34.80;;;18.07;;
7316;SDS011;3699;51.462;6.696;2024-01-15T00:41:51;43.77;;;18.47;;
7316;SDS011;3699;51.462;6.696;2024-01-15T00:44:17;46.63;;;19.93;;
7316;SDS011;3699;51.462;6.696;2024-01-15T00:46:44;40.10;;;17.77;;
7316;SDS011;3699;51.462;6.696;2024-01-15T00:49:12;40.43;;;18.93;;
7316;SDS011;3699;51.462;6.696;2024-01-15T00:51:40;34.40;;;18.33;;
7316;SDS011;3699;51.462;6.696;2024-01-15T00:54:07;38.13;;;19.03;;
7316;SDS011;3699;51.462;6.696;2024-01-15T00:56:34;41.00;;;18.80;;
7316;SDS011;3699;51.462;6.696;2024-01-15T00:59:00;37.33;;;18.13;;
7316;SDS011;3699;51.462;6.696;2024-01-15T01:01:27;37.63;;;18.07;;
7316;SDS011;3699;51.462;6.696;2024-01-15T01:03:54;42.23;;;19.37;;
7316;SDS011;3699;51.462;6.696;2024-01-15T01:06:21;40.50;;;18.90;;
7316;SDS011;3699;51.462;6.696;2024-01-15T01:08:49;36.60;;;18.73;;
7316;SDS011;3699;51.462;6.696;2024-01-15T01:11:16;39.50;;;19.67;;
7316;SDS011;3699;51.462;6.696;2024-01-15T01:13:43;40.10;;;19.37;;
7316;SDS011;3699;51.462;6.696;2024-01-15T01:16:09;39.13;;;19.43;;
7316;SDS011;3699;51.462;6.696;2024-01-15T01:18:36;44.70;;;20.67;;
7316;SDS011;3699;51.462;6.696;2024-01-15T01:21:03;39.83;;;19.37;;
7316;SDS011;3699;51.462;6.696;2024-01-15T01:23:30;40.47;;;20.13;;
7316;SDS011;3699;51.462;6.696;2024-01-15T01:25:58;41.57;;;20.50;;
7316;SDS011;3699;51.462;6.696;2024-01-15T01:28:24;43.00;;;20.03;;
7316;SDS011;3699;51.462;6.696;2024-01-15T01:30:51;43.33;;;21.17;;
7316;SDS011;3699;51.462;6.696;2024-01-15T01:33:18;43.17;;;20.73;;
7316;SDS011;3699;51.462;6.696;2024-01-15T01:35:45;50.43;;;21.03;;
7316;SDS011;3699;51.462;6.696;2024-01-15T01:38:11;44.97;;;20.87;;
7316;SDS011;3699;51.462;6.696;2024-01-15T01:40:38;40.47;;;20.13;;
7316;SDS011;3699;51.462;6.696;2024-01-15T01:43:08;46.57;;;21.97;;
7316;SDS011;3699;51.462;6.696;2024-01-15T01:45:35;38.73;;;19.77;;
7316;SDS011;3699;51.462;6.696;2024-01-15T01:48:02;34.83;;;18.17;;
7316;SDS011;3699;51.462;6.696;2024-01-15T01:50:30;38.23;;;18.80;;
7316;SDS011;3699;51.462;6.696;2024-01-15T01:52:57;38.20;;;19.40;;
7316;SDS011;3699;51.462;6.696;2024-01-15T01:55:25;42.10;;;19.20;;
7316;SDS011;3699;51.462;6.696;2024-01-15T01:57:55;36.60;;;18.20;;
7316;SDS011;3699;51.462;6.696;2024-01-15T02:00:23;42.40;;;18.03;;
7316;SDS011;3699;51.462;6.696;2024-01-15T02:02:50;38.80;;;17.13;;
7316;SDS011;3699;51.462;6.696;2024-01-15T02:05:18;35.03;;;17.13;;
7316;SDS011;3699;51.462;6.696;2024-01-15T02:07:45;33.97;;;16.57;;
7316;SDS011;3699;51.462;6.696;2024-01-15T02:10:12;34.43;;;17.73;;
7316;SDS011;3699;51.462;6.696;2024-01-15T02:12:39;37.73;;;17.13;;
7316;SDS011;3699;51.462;6.696;2024-01-15T02:15:06;33.83;;;17.67;;
7316;SDS011;3699;51.462;6.696;2024-01-15T02:17:34;34.37;;;16.27;;
7316;SDS011;3699;51.462;6.696;2024-01-15T02:20:01;33.27;;;16.17;;
7316;SDS011;3699;51.462;6.696;2024-01-15T02:22:28;32.87;;;16.47;;
7316;SDS011;3699;51.462;6.696;2024-01-15T02:24:56;36.73;;;14.63;;
7316;SDS011;3699;51.462;6.696;2024-01-15T02:27:23;31.60;;;14.93;;
7316;SDS011;3699;51.462;6.696;2024-01-15T02:29:50;29.27;;;14.63;;
7316;SDS011;3699;51.462;6.696;2024-01-15T02:32:17;30.77;;;15.03;;
7316;SDS011;3699;51.462;6.696;2024-01-15T02:34:44;30.47;;;13.83;;
7316;SDS011;3699;51.462;6.696;2024-01-15T02:37:10;25.33;;;13.70;;
7316;SDS011;3699;51.462;6.696;2024-01-15T02:39:37;28.53;;;14.50;;
7316;SDS011;3699;51.462;6.696;2024-01-15T02:42:05;29.33;;;13.93;;
7316;SDS011;3699;51.462;6.696;2024-01-15T02:44:32;29.87;;;13.73;;
7316;SDS011;3699;51.462;6.696;2024-01-15T02:46:59;28.63;;;14.07;;
7316;SDS011;3699;51.462;6.696;2024-01-15T02:49:26;31.70;;;14.33;;
7316;SDS011;3699;51.462;6.696;2024-01-15T02:51:52;25.67;;;13.33;;
7316;SDS011;3699;51.462;6.696;2024-01-15T02:54:19;24.90;;;12.07;;
7316;SDS011;3699;51.462;6.696;2024-01-15T02:56:46;29.47;;;13.10;;
7316;SDS011;3699;51.462;6.696;2024-01-15T02:59:14;24.47;;;13.60;;
7316;SDS011;3699;51.462;6.696;2024-01-15T03:01:40;31.87;;;11.90;;
7316;SDS011;3699;51.462;6.696;2024-01-15T03:04:07;25.83;;;11.87;;
7316;SDS011;3699;51.462;6.696;2024-01-15T03:06:34;23.20;;;11.97;;
7316;SDS011;3699;51.462;6.696;2024-01-15T03:09:01;20.47;;;11.03;;
7316;SDS011;3699;51.462;6.696;2024-01-15T03:11:28;24.43;;;11.47;;
7316;SDS011;3699;51.462;6.696;2024-01-15T03:13:55;18.50;;;10.97;;
7316;SDS011;3699;51.462;6.696;2024-01-15T03:16:23;27.63;;;11.60;;
7316;SDS011;3699;51.462;6.696;2024-01-15T03:18:50;25.20;;;11.97;;
7316;SDS011;3699;51.462;6.696;2024-01-15T03:21:16;24.27;;;11.97;;
7316;SDS011;3699;51.462;6.696;2024-01-15T03:23:43;20.10;;;12.17;;
7316;SDS011;3699;51.462;6.696;2024-01-15T03:26:10;24.63;;;11.57;;
7316;SDS011;3699;51.462;6.696;2024-01-15T03:28:36;28.57;;;11.53;;
7316;SDS011;3699;51.462;6.696;2024-01-15T03:31:03;22.83;;;12.13;;
7316;SDS011;3699;51.462;6.696;2024-01-15T03:33:31;19.53;;;10.50;;
7316;SDS011;3699;51.462;6.696;2024-01-15T03:35:58;20.27;;;9.47;;
7316;SDS011;3699;51.462;6.696;2024-01-15T03:38:26;16.37;;;9.93;;
7316;SDS011;3699;51.462;6.696;2024-01-15T03:40:54;20.13;;;9.47;;
7316;SDS011;3699;51.462;6.696;2024-01-15T03:43:20;19.33;;;10.03;;
7316;SDS011;3699;51.462;6.696;2024-01-15T03:45:47;21.13;;;10.17;;
7316;SDS011;3699;51.462;6.696;2024-01-15T03:48:14;19.67;;;10.37;;
7316;SDS011;3699;51.462;6.696;2024-01-15T03:50:42;26.70;;;11.43;;
7316;SDS011;3699;51.462;6.696;2024-01-15T03:53:09;22.73;;;11.77;;
7316;SDS011;3699;51.462;6.696;2024-01-15T03:55:35;22.90;;;12.60;;
7316;SDS011;3699;51.462;6.696;2024-01-15T03:58:02;23.87;;;12.27;;
7316;SDS011;3699;51.462;6.696;2024-01-15T04:00:29;28.03;;;12.20;;
7316;SDS011;3699;51.462;6.696;2024-01-15T04:02:56;24.67;;;13.20;;
7316;SDS011;3699;51.462;6.696;2024-01-15T04:05:22;22.73;;;12.13;;
7316;SDS011;3699;51.462;6.696;2024-01-15T04:07:50;21.90;;;12.00;;
7316;SDS011;3699;51.462;6.696;2024-01-15T04:10:17;25.40;;;13.53;;
7316;SDS011;3699;51.462;6.696;2024-01-15T04:12:44;26.27;;;13.60;;
7316;SDS011;3699;51.462;6.696;2024-01-15T04:15:11;23.33;;;12.97;;
7316;SDS011;3699;51.462;6.696;2024-01-15T04:17:38;25.97;;;13.13;;
7316;SDS011;3699;51.462;6.696;2024-01-15T04:20:05;24.70;;;14.37;;
7316;SDS011;3699;51.462;6.696;2024-01-15T04:22:33;28.27;;;13.83;;
7316;SDS011;3699;51.462;6.696;2024-01-15T04:25:01;27.03;;;14.17;;
7316;SDS011;3699;51.462;6.696;2024-01-15T04:27:28;23.33;;;12.53;;
7316;SDS011;3699;51.462;6.696;2024-01-15T04:29:55;28.13;;;13.70;;
7316;SDS011;3699;51.462;6.696;2024-01-15T04:32:21;24.67;;;12.77;;
7316;SDS011;3699;51.462;6.696;2024-01-15T04:34:48;24.33;;;13.00;;
7316;SDS011;3699;51.462;6.696;2024-01-15T04:37:15;22.53;;;13.10;;
7316;SDS011;3699;51.462;6.696;2024-01-15T04:39:42;25.10;;;13.07;;
7316;SDS011;3699;51.462;6.696;2024-01-15T04:42:10;22.53;;;12.50;;
7316;SDS011;3699;51.462;6.696;2024-01-15T04:44:36;19.00;;;11.20;;
7316;SDS011;3699;51.462;6.696;2024-01-15T04:47:03;19.87;;;11.40;;
7316;SDS011;3699;51.462;6.696;2024-01-15T04:49:30;24.90;;;11.70;;
7316;SDS011;3699;51.462;6.696;2024-01-15T04:51:56;22.30;;;11.20;;
7316;SDS011;3699;51.462;6.696;2024-01-15T04:54:23;21.33;;;9.97;;
7316;SDS011;3699;51.462;6.696;2024-01-15T04:56:50;16.27;;;10.63;;
7316;SDS011;3699;51.462;6.696;2024-01-15T04:59:18;18.37;;;10.50;;
7316;SDS011;3699;51.462;6.696;2024-01-15T05:01:45;14.73;;;9.97;;
7316;SDS011;3699;51.462;6.696;2024-01-15T05:06:44;19.17;;;9.93;;
7316;SDS011;3699;51.462;6.696;2024-01-15T05:09:10;23.10;;;9.83;;
7316;SDS011;3699;51.462;6.696;2024-01-15T05:11:38;19.80;;;10.93;;
7316;SDS011;3699;51.462;6.696;2024-01-15T05:14:05;18.27;;;10.07;;
7316;SDS011;3699;51.462;6.696;2024-01-15T05:16:33;23.97;;;12.03;;
7316;SDS011;3699;51.462;6.696;2024-01-15T05:18:59;17.80;;;10.57;;
7316;SDS011;3699;51.462;6.696;2024-01-15T05:21:26;24.00;;;12.17;;
7316;SDS011;3699;51.462;6.696;2024-01-15T05:23:53;22.90;;;11.67;;
7316;SDS011;3699;51.462;6.696;2024-01-15T05:26:19;21.30;;;11.83;;
7316;SDS011;3699;51.462;6.696;2024-01-15T05:28:46;22.30;;;12.23;;
7316;SDS011;3699;51.462;6.696;2024-01-15T05:31:13;19.03;;;11.20;;
7316;SDS011;3699;51.462;6.696;2024-01-15T05:33:41;22.73;;;11.47;;
7316;SDS011;3699;51.462;6.696;2024-01-15T05:36:08;35.50;;;13.97;;
7316;SDS011;3699;51.462;6.696;2024-01-15T05:38:34;25.70;;;11.40;;
7316;SDS011;3699;51.462;6.696;2024-01-15T05:41:01;24.07;;;11.00;;
7316;SDS011;3699;51.462;6.696;2024-01-15T05:43:28;21.70;;;11.73;;
7316;SDS011;3699;51.462;6.696;2024-01-15T05:45:55;19.87;;;9.90;;
7316;SDS011;3699;51.462;6.696;2024-01-15T05:48:22;15.60;;;9.53;;
7316;SDS011;3699;51.462;6.696;2024-01-15T05:50:50;22.70;;;10.93;;
7316;SDS011;3699;51.462;6.696;2024-01-15T05:53:16;23.17;;;10.03;;
7316;SDS011;3699;51.462;6.696;2024-01-15T05:55:44;18.57;;;10.17;;
7316;SDS011;3699;51.462;6.696;2024-01-15T05:58:11;18.10;;;9.37;;
7316;SDS011;3699;51.462;6.696;2024-01-15T06:00:38;21.93;;;9.30;;
7316;SDS011;3699;51.462;6.696;2024-01-15T06:03:04;21.57;;;9.97;;
7316;SDS011;3699;51.462;6.696;2024-01-15T06:05:31;16.43;;;9.23;;
7316;SDS011;3699;51.462;6.696;2024-01-15T06:07:59;13.30;;;8.47;;
7316;SDS011;3699;51.462;6.696;2024-01-15T06:10:26;14.77;;;7.53;;
7316;SDS011;3699;51.462;6.696;2024-01-15T06:12:53;16.07;;;7.67;;
7316;SDS011;3699;51.462;6.696;2024-01-15T06:15:20;13.17;;;7.13;;
7316;SDS011;3699;51.462;6.696;2024-01-15T06:17:46;15.23;;;7.03;;
7316;SDS011;3699;51.462;6.696;2024-01-15T06:20:13;17.03;;;9.13;;
7316;SDS011;3699;51.462;6.696;2024-01-15T06:22:40;9.67;;;6.07;;
7316;SDS011;3699;51.462;6.696;2024-01-15T06:25:08;10.87;;;6.30;;
7316;SDS011;3699;51.462;6.696;2024-01-15T06:27:35;12.90;;;5.60;;
7316;SDS011;3699;51.462;6.696;2024-01-15T06:30:02;9.00;;;5.57;;
7316;SDS011;3699;51.462;6.696;2024-01-15T06:32:29;9.67;;;5.30;;
7316;SDS011;3699;51.462;6.696;2024-01-15T06:34:56;6.80;;;4.60;;
7316;SDS011;3699;51.462;6.696;2024-01-15T06:37:22;7.90;;;4.60;;
7316;SDS011;3699;51.462;6.696;2024-01-15T06:39:49;11.80;;;4.73;;
7316;SDS011;3699;51.462;6.696;2024-01-15T06:42:18;9.03;;;4.07;;
7316;SDS011;3699;51.462;6.696;2024-01-15T06:44:47;9.57;;;4.13;;
7316;SDS011;3699;51.462;6.696;2024-01-15T06:47:13;12.80;;;4.70;;
7316;SDS011;3699;51.462;6.696;2024-01-15T06:49:42;8.97;;;4.17;;
7316;SDS011;3699;51.462;6.696;2024-01-15T06:52:09;6.60;;;3.83;;
7316;SDS011;3699;51.462;6.696;2024-01-15T06:54:36;5.73;;;3.53;;
7316;SDS011;3699;51.462;6.696;2024-01-15T06:57:03;6.37;;;3.20;;
7316;SDS011;3699;51.462;6.696;2024-01-15T06:59:33;6.57;;;3.37;;
7316;SDS011;3699;51.462;6.696;2024-01-15T07:02:00;5.67;;;3.47;;
7316;SDS011;3699;51.462;6.696;2024-01-15T07:04:27;4.43;;;3.37;;
7316;SDS011;3699;51.462;6.696;2024-01-15T07:06:54;8.53;;;3.87;;
7316;SDS011;3699;51.462;6.696;2024-01-15T07:09:25;6.20;;;3.37;;
7316;SDS011;3699;51.462;6.696;2024-01-15T07:11:52;4.80;;;3.40;;
7316;SDS011;3699;51.462;6.696;2024-01-15T07:14:19;6.40;;;4.07;;
7316;SDS011;3699;51.462;6.696;2024-01-15T07:16:47;7.77;;;3.90;;
7316;SDS011;3699;51.462;6.696;2024-01-15T07:19:14;6.87;;;3.83;;
7316;SDS011;3699;51.462;6.696;2024-01-15T07:21:40;13.87;;;7.13;;
7316;SDS011;3699;51.462;6.696;2024-01-15T07:24:08;9.37;;;4.07;;
7316;SDS011;3699;51.462;6.696;2024-01-15T07:26:35;47.10;;;29.20;;
7316;SDS011;3699;51.462;6.696;2024-01-15T07:29:02;13.60;;;8.87;;
7316;SDS011;3699;51.462;6.696;2024-01-15T07:31:29;9.70;;;5.17;;
7316;SDS011;3699;51.462;6.696;2024-01-15T07:33:57;12.30;;;5.33;;
7316;SDS011;3699;51.462;6.696;2024-01-15T07:36:25;8.57;;;4.87;;
7316;SDS011;3699;51.462;6.696;2024-01-15T07:38:51;9.50;;;4.93;;
7316;SDS011;3699;51.462;6.696;2024-01-15T07:41:18;13.13;;;6.10;;
7316;SDS011;3699;51.462;6.696;2024-01-15T07:43:45;10.80;;;7.10;;
7316;SDS011;3699;51.462;6.696;2024-01-15T07:46:12;14.87;;;8.07;;
7316;SDS011;3699;51.462;6.696;2024-01-15T07:48:41;15.37;;;8.50;;
7316;SDS011;3699;51.462;6.696;2024-01-15T07:51:09;19.53;;;10.93;;
7316;SDS011;3699;51.462;6.696;2024-01-15T07:53:36;21.73;;;10.80;;
7316;SDS011;3699;51.462;6.696;2024-01-15T07:56:03;18.47;;;11.60;;
7316;SDS011;3699;51.462;6.696;2024-01-15T07:58:30;21.80;;;12.10;;
7316;SDS011;3699;51.462;6.696;2024-01-15T08:00:57;25.17;;;11.90;;
7316;SDS011;3699;51.462;6.696;2024-01-15T08:03:24;24.27;;;12.80;;
7316;SDS011;3699;51.462;6.696;2024-01-15T08:05:50;20.23;;;12.37;;
7316;SDS011;3699;51.462;6.696;2024-01-15T08:08:20;19.73;;;11.97;;
7316;SDS011;3699;51.462;6.696;2024-01-15T08:10:48;22.17;;;13.30;;
7316;SDS011;3699;51.462;6.696;2024-01-15T08:13:15;20.43;;;12.73;;
7316;SDS011;3699;51.462;6.696;2024-01-15T08:15:41;22.53;;;12.77;;
7316;SDS011;3699;51.462;6.696;2024-01-15T08:18:08;20.30;;;12.07;;
7316;SDS011;3699;51.462;6.696;2024-01-15T08:20:35;20.83;;;13.50;;
7316;SDS011;3699;51.462;6.696;2024-01-15T08:23:02;18.87;;;13.07;;
7316;SDS011;3699;51.462;6.696;2024-01-15T08:25:30;21.70;;;13.83;;
7316;SDS011;3699;51.462;6.696;2024-01-15T08:27:57;20.93;;;12.70;;
7316;SDS011;3699;51.462;6.696;2024-01-15T08:30:23;21.83;;;13.67;;
7316;SDS011;3699;51.462;6.696;2024-01-15T08:32:52;27.30;;;13.60;;
7316;SDS011;3699;51.462;6.696;2024-01-15T08:35:19;19.23;;;13.13;;
7316;SDS011;3699;51.462;6.696;2024-01-15T08:37:47;26.70;;;13.30;;
7316;SDS011;3699;51.462;6.696;2024-01-15T08:40:14;22.57;;;14.17;;
7316;SDS011;3699;51.462;6.696;2024-01-15T08:42:42;20.53;;;13.40;;
7316;SDS011;3699;51.462;6.696;2024-01-15T08:45:10;22.80;;;13.10;;
7316;SDS011;3699;51.462;6.696;2024-01-15T08:47:37;19.60;;;12.70;;
7316;SDS011;3699;51.462;6.696;2024-01-15T08:50:04;22.10;;;12.97;;
7316;SDS011;3699;51.462;6.696;2024-01-15T08:52:34;20.47;;;12.40;;
7316;SDS011;3699;51.462;6.696;2024-01-15T08:55:02;17.87;;;12.50;;
7316;SDS011;3699;51.462;6.696;2024-01-15T08:57:29;16.07;;;10.97;;
7316;SDS011;3699;51.462;6.696;2024-01-15T08:59:57;16.73;;;10.60;;
7316;SDS011;3699;51.462;6.696;2024-01-15T09:02:25;13.50;;;9.60;;
7316;SDS011;3699;51.462;6.696;2024-01-15T09:04:52;13.80;;;9.50;;
7316;SDS011;3699;51.462;6.696;2024-01-15T09:07:18;14.33;;;9.20;;
7316;SDS011;3699;51.462;6.696;2024-01-15T09:09:45;16.03;;;9.90;;
7316;SDS011;3699;51.462;6.696;2024-01-15T09:12:12;14.23;;;9.60;;
7316;SDS011;3699;51.462;6.696;2024-01-15T09:14:40;14.97;;;9.63;;
7316;SDS011;3699;51.462;6.696;2024-01-15T09:17:08;12.93;;;8.77;;
7316;SDS011;3699;51.462;6.696;2024-01-15T09:19:35;16.23;;;9.23;;
7316;SDS011;3699;51.462;6.696;2024-01-15T09:22:02;12.57;;;8.33;;
7316;SDS011;3699;51.462;6.696;2024-01-15T09:24:29;10.37;;;7.70;;
7316;SDS011;3699;51.462;6.696;2024-01-15T09:26:56;10.67;;;7.67;;
7316;SDS011;3699;51.462;6.696;2024-01-15T09:29:22;10.83;;;7.50;;
7316;SDS011;3699;51.462;6.696;2024-01-15T09:31:49;9.63;;;7.30;;
7316;SDS011;3699;51.462;6.696;2024-01-15T09:34:17;8.60;;;6.07;;
7316;SDS011;3699;51.462;6.696;2024-01-15T09:36:44;8.43;;;6.30;;
7316;SDS011;3699;51.462;6.696;2024-01-15T09:39:11;7.63;;;6.17;;
7316;SDS011;3699;51.462;6.696;2024-01-15T09:41:38;6.73;;;5.30;;
7316;SDS011;3699;51.462;6.696;2024-01-15T09:44:05;7.27;;;5.33;;
7316;SDS011;3699;51.462;6.696;2024-01-15T09:46:32;8.43;;;5.57;;
7316;SDS011;3699;51.462;6.696;2024-01-15T09:48:59;7.23;;;5.13;;
7316;SDS011;3699;51.462;6.696;2024-01-15T09:51:29;10.47;;;5.20;;
7316;SDS011;3699;51.462;6.696;2024-01-15T09:53:57;7.67;;;4.73;;
7316;SDS011;3699;51.462;6.696;2024-01-15T09:56:24;8.43;;;4.50;;
7316;SDS011;3699;51.462;6.696;2024-01-15T09:58:51;6.97;;;4.90;;
7316;SDS011;3699;51.462;6.696;2024-01-15T10:01:18;5.43;;;4.50;;
7316;SDS011;3699;51.462;6.696;2024-01-15T10:03:46;5.87;;;4.53;;
7316;SDS011;3699;51.462;6.696;2024-01-15T10:06:13;8.67;;;5.03;;
7316;SDS011;3699;51.462;6.696;2024-01-15T10:08:44;7.73;;;4.73;;
7316;SDS011;3699;51.462;6.696;2024-01-15T10:11:14;6.77;;;4.83;;
7316;SDS011;3699;51.462;6.696;2024-01-15T10:13:41;7.73;;;4.50;;
7316;SDS011;3699;51.462;6.696;2024-01-15T10:16:09;5.73;;;4.43;;
7316;SDS011;3699;51.462;6.696;2024-01-15T10:18:36;5.10;;;4.33;;
7316;SDS011;3699;51.462;6.696;2024-01-15T10:21:04;5.47;;;3.87;;
7316;SDS011;3699;51.462;6.696;2024-01-15T10:23:32;7.93;;;4.23;;
7316;SDS011;3699;51.462;6.696;2024-01-15T10:26:01;8.27;;;4.70;;
7316;SDS011;3699;51.462;6.696;2024-01-15T10:28:28;4.27;;;3.57;;
7316;SDS011;3699;51.462;6.696;2024-01-15T10:30:57;6.93;;;4.10;;
7316;SDS011;3699;51.462;6.696;2024-01-15T10:33:25;5.07;;;4.03;;
7316;SDS011;3699;51.462;6.696;2024-01-15T10:35:53;5.47;;;4.07;;
7316;SDS011;3699;51.462;6.696;2024-01-15T10:38:21;5.00;;;3.83;;
7316;SDS011;3699;51.462;6.696;2024-01-15T10:40:48;5.23;;;3.33;;
7316;SDS011;3699;51.462;6.696;2024-01-15T10:43:19;6.20;;;4.03;;
7316;SDS011;3699;51.462;6.696;2024-01-15T10:45:46;6.67;;;4.17;;
7316;SDS011;3699;51.462;6.696;2024-01-15T10:48:13;5.33;;;4.17;;
7316;SDS011;3699;51.462;6.696;2024-01-15T10:50:40;13.30;;;4.87;;
7316;SDS011;3699;51.462;6.696;2024-01-15T10:53:07;6.37;;;4.37;;
7316;SDS011;3699;51.462;6.696;2024-01-15T10:55:35;10.17;;;4.57;;
7316;SDS011;3699;51.462;6.696;2024-01-15T10:58:04;7.77;;;4.43;;
7316;SDS011;3699;51.462;6.696;2024-01-15T11:00:33;5.00;;;3.87;;
7316;SDS011;3699;51.462;6.696;2024-01-15T11:03:02;6.17;;;4.90;;
7316;SDS011;3699;51.462;6.696;2024-01-15T11:05:32;5.80;;;4.60;;
7316;SDS011;3699;51.462;6.696;2024-01-15T11:07:59;6.77;;;5.03;;
7316;SDS011;3699;51.462;6.696;2024-01-15T11:10:40;6.90;;;5.23;;
7316;SDS011;3699;51.462;6.696;2024-01-15T11:13:08;6.43;;;5.10;;
7316;SDS011;3699;51.462;6.696;2024-01-15T11:18:22;7.83;;;5.17;;
7316;SDS011;3699;51.462;6.696;2024-01-15T11:23:51;9.37;;;5.40;;
7316;SDS011;3699;51.462;6.696;2024-01-15T11:29:10;7.30;;;5.50;;
7316;SDS011;3699;51.462;6.696;2024-01-15T11:32:00;7.07;;;5.53;;
7316;SDS011;3699;51.462;6.696;2024-01-15T11:37:24;6.80;;;4.90;;
7316;SDS011;3699;51.462;6.696;2024-01-15T11:39:52;8.13;;;5.13;;
7316;SDS011;3699;51.462;6.696;2024-01-15T11:42:20;6.20;;;4.73;;
7316;SDS011;3699;51.462;6.696;2024-01-15T11:44:47;11.80;;;4.20;;
7316;SDS011;3699;51.462;6.696;2024-01-15T11:47:15;8.37;;;4.37;;
7316;SDS011;3699;51.462;6.696;2024-01-15T11:50:06;5.67;;;4.60;;
7316;SDS011;3699;51.462;6.696;2024-01-15T11:52:35;7.13;;;4.27;;
7316;SDS011;3699;51.462;6.696;2024-01-15T11:55:14;8.33;;;4.73;;
7316;SDS011;3699;51.462;6.696;2024-01-15T11:57:45;4.57;;;3.53;;
7316;SDS011;3699;51.462;6.696;2024-01-15T12:00:13;6.93;;;3.97;;
7316;SDS011;3699;51.462;6.696;2024-01-15T12:02:43;6.20;;;3.87;;
7316;SDS011;3699;51.462;6.696;2024-01-15T12:05:10;8.30;;;3.43;;
7316;SDS011;3699;51.462;6.696;2024-01-15T12:07:38;10.27;;;4.33;;
7316;SDS011;3699;51.462;6.696;2024-01-15T12:10:09;5.07;;;3.23;;
7316;SDS011;3699;51.462;6.696;2024-01-15T12:12:44;13.23;;;3.53;;
7316;SDS011;3699;51.462;6.696;2024-01-15T12:15:24;4.67;;;3.10;;
7316;SDS011;3699;51.462;6.696;2024-01-15T12:17:53;4.77;;;3.30;;
7316;SDS011;3699;51.462;6.696;2024-01-15T12:20:22;7.97;;;3.77;;
7316;SDS011;3699;51.462;6.696;2024-01-15T12:22:49;7.73;;;2.93;;
7316;SDS011;3699;51.462;6.696;2024-01-15T12:25:17;6.73;;;3.50;;
7316;SDS011;3699;51.462;6.696;2024-01-15T12:27:44;6.80;;;3.50;;
7316;SDS011;3699;51.462;6.696;2024-01-15T12:30:11;6.33;;;3.30;;
7316;SDS011;3699;51.462;6.696;2024-01-15T12:35:29;4.97;;;3.10;;
7316;SDS011;3699;51.462;6.696;2024-01-15T12:37:56;7.10;;;3.17;;
7316;SDS011;3699;51.462;6.696;2024-01-15T12:40:23;6.97;;;3.27;;
7316;SDS011;3699;51.462;6.696;2024-01-15T12:42:50;5.83;;;3.27;;
7316;SDS011;3699;51.462;6.696;2024-01-15T12:45:17;5.17;;;3.33;;
7316;SDS011;3699;51.462;6.696;2024-01-15T12:47:43;4.50;;;3.20;;
7316;SDS011;3699;51.462;6.696;2024-01-15T12:50:11;5.73;;;3.27;;
7316;SDS011;3699;51.462;6.696;2024-01-15T12:52:39;5.80;;;3.47;;
7316;SDS011;3699;51.462;6.696;2024-01-15T12:55:07;6.87;;;3.83;;
7316;SDS011;3699;51.462;6.696;2024-01-15T12:57:35;5.83;;;3.43;;
7316;SDS011;3699;51.462;6.696;2024-01-15T13:00:02;6.17;;;3.70;;
7316;SDS011;3699;51.462;6.696;2024-01-15T13:02:31;7.57;;;3.73;;
7316;SDS011;3699;51.462;6.696;2024-01-15T13:04:59;4.97;;;3.37;;
7316;SDS011;3699;51.462;6.696;2024-01-15T13:07:27;5.87;;;3.60;;
7316;SDS011;3699;51.462;6.696;2024-01-15T13:09:53;4.83;;;3.60;;
7316;SDS011;3699;51.462;6.696;2024-01-15T13:12:20;7.33;;;4.13;;
7316;SDS011;3699;51.462;6.696;2024-01-15T13:14:47;7.00;;;4.03;;
7316;SDS011;3699;51.462;6.696;2024-01-15T13:17:14;9.67;;;3.97;;
7316;SDS011;3699;51.462;6.696;2024-01-15T13:19:41;10.80;;;4.37;;
7316;SDS011;3699;51.462;6.696;2024-01-15T13:22:08;7.80;;;4.47;;
7316;SDS011;3699;51.462;6.696;2024-01-15T13:24:36;7.97;;;4.80;;
7316;SDS011;3699;51.462;6.696;2024-01-15T13:27:03;7.83;;;4.60;;
7316;SDS011;3699;51.462;6.696;2024-01-15T13:29:30;5.00;;;4.27;;
7316;SDS011;3699;51.462;6.696;2024-01-15T13:31:58;11.07;;;4.63;;
7316;SDS011;3699;51.462;6.696;2024-01-15T13:34:25;7.20;;;4.43;;
7316;SDS011;3699;51.462;6.696;2024-01-15T13:36:52;7.10;;;4.13;;
7316;SDS011;3699;51.462;6.696;2024-01-15T13:39:19;7.27;;;4.47;;
7316;SDS011;3699;51.462;6.696;2024-01-15T13:41:47;8.27;;;4.83;;
7316;SDS011;3699;51.462;6.696;2024-01-15T13:44:14;4.77;;;4.30;;
7316;SDS011;3699;51.462;6.696;2024-01-15T13:46:41;4.83;;;4.33;;
7316;SDS011;3699;51.462;6.696;2024-01-15T13:49:08;3.93;;;3.53;;
7316;SDS011;3699;51.462;6.696;2024-01-15T13:51:35;4.47;;;3.30;;
7316;SDS011;3699;51.462;6.696;2024-01-15T13:54:02;4.03;;;2.90;;
7316;SDS011;3699;51.462;6.696;2024-01-15T13:56:30;3.70;;;3.07;;
7316;SDS011;3699;51.462;6.696;2024-01-15T13:58:59;3.37;;;2.50;;
7316;SDS011;3699;51.462;6.696;2024-01-15T14:01:25;3.13;;;2.70;;
7316;SDS011;3699;51.462;6.696;2024-01-15T14:03:53;4.73;;;2.63;;
7316;SDS011;3699;51.462;6.696;2024-01-15T14:06:20;3.87;;;2.67;;
7316;SDS011;3699;51.462;6.696;2024-01-15T14:08:47;2.90;;;2.60;;
7316;SDS011;3699;51.462;6.696;2024-01-15T14:11:13;3.90;;;2.60;;
7316;SDS011;3699;51.462;6.696;2024-01-15T14:13:40;3.03;;;2.80;;
7316;SDS011;3699;51.462;6.696;2024-01-15T14:16:09;3.93;;;2.97;;
7316;SDS011;3699;51.462;6.696;2024-01-15T14:18:36;4.00;;;2.80;;
7316;SDS011;3699;51.462;6.696;2024-01-15T14:21:03;3.93;;;3.10;;
7316;SDS011;3699;51.462;6.696;2024-01-15T14:23:30;6.50;;;2.70;;
7316;SDS011;3699;51.462;6.696;2024-01-15T14:25:57;3.57;;;2.87;;
7316;SDS011;3699;51.462;6.696;2024-01-15T14:28:24;4.07;;;3.63;;
7316;SDS011;3699;51.462;6.696;2024-01-15T14:30:50;5.00;;;3.60;;
7316;SDS011;3699;51.462;6.696;2024-01-15T14:33:19;3.70;;;3.10;;
7316;SDS011;3699;51.462;6.696;2024-01-15T14:35:45;4.50;;;2.60;;
7316;SDS011;3699;51.462;6.696;2024-01-15T14:38:12;5.33;;;3.47;;
7316;SDS011;3699;51.462;6.696;2024-01-15T14:40:39;3.20;;;2.90;;
7316;SDS011;3699;51.462;6.696;2024-01-15T14:43:05;7.07;;;2.97;;
7316;SDS011;3699;51.462;6.696;2024-01-15T14:45:33;6.87;;;3.47;;
7316;SDS011;3699;51.462;6.696;2024-01-15T14:48:00;5.83;;;2.97;;
7316;SDS011;3699;51.462;6.696;2024-01-15T14:50:28;4.90;;;2.87;;
7316;SDS011;3699;51.462;6.696;2024-01-15T14:52:56;3.47;;;3.13;;
7316;SDS011;3699;51.462;6.696;2024-01-15T14:55:23;4.57;;;3.37;;
7316;SDS011;3699;51.462;6.696;2024-01-15T14:57:50;5.20;;;3.27;;
7316;SDS011;3699;51.462;6.696;2024-01-15T15:00:18;3.93;;;3.23;;
7316;SDS011;3699;51.462;6.696;2024-01-15T15:02:44;5.63;;;3.30;;
7316;SDS011;3699;51.462;6.696;2024-01-15T15:05:12;4.37;;;3.30;;
7316;SDS011;3699;51.462;6.696;2024-01-15T15:07:43;5.53;;;3.20;;
7316;SDS011;3699;51.462;6.696;2024-01-15T15:10:10;5.37;;;3.33;;
7316;SDS011;3699;51.462;6.696;2024-01-15T15:12:37;4.23;;;3.10;;
7316;SDS011;3699;51.462;6.696;2024-01-15T15:15:03;7.80;;;3.87;;
7316;SDS011;3699;51.462;6.696;2024-01-15T15:17:32;3.93;;;3.40;;